Terminal Aerodrome Forecast
Issued by NWS

Home | Current Version | Previous Version | Text Only | Print | Product List | Glossary On
Versions: 1 2 3 4 5 6 7 8 9 10 11 12 13 14 15 16 17
360
FTUS41 KAKQ 281137
TAFPHF
TAF
KPHF 281137Z 2812/2912 21005KT P6SM SCT250
     FM281900 17006KT P6SM BKN060
     FM290400 21004KT P6SM SCT250=

USA.gov is the U.S. government's official web portal to all federal, state and local government web resources and services.